sensor_id;sensor_type;location;lat;lon;timestamp;pressure;altitude;pressure_sealevel;temperature;humidity
72116;BME280;59991;52.140;5.428;2023-10-31T00:00:17;99604.50;;;9.47;100.00
72116;BME280;59991;52.140;5.428;2023-10-31T00:00:49;99601.41;;;9.48;100.00
72116;BME280;59991;52.140;5.428;2023-10-31T00:01:22;99600.63;;;9.48;100.00
72116;BME280;59991;52.140;5.428;2023-10-31T00:01:53;99605.66;;;9.49;100.00
72116;BME280;59991;52.140;5.428;2023-10-31T00:02:26;99600.22;;;9.49;100.00
72116;BME280;59991;52.140;5.428;2023-10-31T00:02:58;99611.09;;;9.49;100.00
72116;BME280;59991;52.140;5.428;2023-10-31T00:03:31;99603.72;;;9.50;100.00
72116;BME280;59991;52.140;5.428;2023-10-31T00:04:02;99609.16;;;9.50;100.00
72116;BME280;59991;52.140;5.428;2023-10-31T00:04:34;99603.31;;;9.51;100.00
72116;BME280;59991;52.140;5.428;2023-10-31T00:05:06;99596.72;;;9.49;100.00
72116;BME280;59991;52.140;5.428;2023-10-31T00:05:37;99602.16;;;9.49;100.00
72116;BME280;59991;52.140;5.428;2023-10-31T00:06:09;99608.78;;;9.48;100.00
72116;BME280;59991;52.140;5.428;2023-10-31T00:06:41;99607.22;;;9.47;100.00
72116;BME280;59991;52.140;5.428;2023-10-31T00:07:12;99600.25;;;9.46;100.00
72116;BME280;59991;52.140;5.428;2023-10-31T00:07:44;99611.13;;;9.46;100.00
72116;BME280;59991;52.140;5.428;2023-10-31T00:08:15;99608.81;;;9.44;100.00
72116;BME280;59991;52.140;5.428;2023-10-31T00:08:47;99605.69;;;9.46;100.00
72116;BME280;59991;52.140;5.428;2023-10-31T00:09:18;99611.13;;;9.46;100.00
72116;BME280;59991;52.140;5.428;2023-10-31T00:09:50;99609.97;;;9.47;100.00
72116;BME280;59991;52.140;5.428;2023-10-31T00:10:21;99608.00;;;9.47;100.00
72116;BME280;59991;52.140;5.428;2023-10-31T00:10:53;99614.63;;;9.46;100.00
72116;BME280;59991;52.140;5.428;2023-10-31T00:11:24;99607.22;;;9.47;100.00
72116;BME280;59991;52.140;5.428;2023-10-31T00:11:56;99607.22;;;9.47;100.00
72116;BME280;59991;52.140;5.428;2023-10-31T00:12:27;99609.97;;;9.47;100.00
72116;BME280;59991;52.140;5.428;2023-10-31T00:12:59;99608.00;;;9.47;100.00
72116;BME280;59991;52.140;5.428;2023-10-31T00:13:30;99608.00;;;9.47;100.00
72116;BME280;59991;52.140;5.428;2023-10-31T00:14:02;99604.50;;;9.47;100.00
72116;BME280;59991;52.140;5.428;2023-10-31T00:14:33;99599.84;;;9.47;100.00
72116;BME280;59991;52.140;5.428;2023-10-31T00:15:05;99608.00;;;9.47;100.00
72116;BME280;59991;52.140;5.428;2023-10-31T00:15:37;99602.56;;;9.47;100.00
72116;BME280;59991;52.140;5.428;2023-10-31T00:16:08;99598.31;;;9.46;100.00
72116;BME280;59991;52.140;5.428;2023-10-31T00:16:40;99599.84;;;9.47;100.00
72116;BME280;59991;52.140;5.428;2023-10-31T00:17:12;99599.84;;;9.47;100.00
72116;BME280;59991;52.140;5.428;2023-10-31T00:17:43;99604.13;;;9.48;100.00
72116;BME280;59991;52.140;5.428;2023-10-31T00:18:15;99604.88;;;9.49;100.00
72116;BME280;59991;52.140;5.428;2023-10-31T00:18:46;99603.34;;;9.48;100.00
72116;BME280;59991;52.140;5.428;2023-10-31T00:19:18;99603.75;;;9.46;100.00
72116;BME280;59991;52.140;5.428;2023-10-31T00:19:49;99601.03;;;9.46;100.00
72116;BME280;59991;52.140;5.428;2023-10-31T00:20:21;99601.03;;;9.46;100.00
72116;BME280;59991;52.140;5.428;2023-10-31T00:20:53;99609.19;;;9.46;100.00
72116;BME280;59991;52.140;5.428;2023-10-31T00:21:24;99609.19;;;9.46;100.00
72116;BME280;59991;52.140;5.428;2023-10-31T00:21:55;99614.25;;;9.44;100.00
72116;BME280;59991;52.140;5.428;2023-10-31T00:22:27;99615.03;;;9.45;100.00
72116;BME280;59991;52.140;5.428;2023-10-31T00:22:59;99609.56;;;9.45;100.00
72116;BME280;59991;52.140;5.428;2023-10-31T00:23:30;99611.91;;;9.46;100.00
72116;BME280;59991;52.140;5.428;2023-10-31T00:24:02;99613.84;;;9.46;100.00
72116;BME280;59991;52.140;5.428;2023-10-31T00:25:24;99613.44;;;9.47;100.00
72116;BME280;59991;52.140;5.428;2023-10-31T00:25:55;99610.72;;;9.47;100.00
72116;BME280;59991;52.140;5.428;2023-10-31T00:26:27;99609.56;;;9.48;100.00
72116;BME280;59991;52.140;5.428;2023-10-31T00:26:58;99608.78;;;9.48;100.00
72116;BME280;59991;52.140;5.428;2023-10-31T00:27:30;99612.28;;;9.48;100.00
72116;BME280;59991;52.140;5.428;2023-10-31T00:28:02;99604.88;;;9.49;100.00
72116;BME280;59991;52.140;5.428;2023-10-31T00:28:33;99615.78;;;9.49;100.00
72116;BME280;59991;52.140;5.428;2023-10-31T00:29:05;99616.56;;;9.49;100.00
72116;BME280;59991;52.140;5.428;2023-10-31T00:29:36;99619.28;;;9.49;100.00
72116;BME280;59991;52.140;5.428;2023-10-31T00:30:08;99624.31;;;9.51;100.00
72116;BME280;59991;52.140;5.428;2023-10-31T00:30:39;99620.03;;;9.50;100.00
72116;BME280;59991;52.140;5.428;2023-10-31T00:31:11;99632.47;;;9.51;100.00
72116;BME280;59991;52.140;5.428;2023-10-31T00:31:42;99623.53;;;9.50;100.00
72116;BME280;59991;52.140;5.428;2023-10-31T00:32:14;99628.59;;;9.52;100.00
72116;BME280;59991;52.140;5.428;2023-10-31T00:32:45;99626.63;;;9.52;100.00
72116;BME280;59991;52.140;5.428;2023-10-31T00:33:17;99626.63;;;9.52;100.00
72116;BME280;59991;52.140;5.428;2023-10-31T00:33:49;99625.09;;;9.51;100.00
72116;BME280;59991;52.140;5.428;2023-10-31T00:34:20;99622.78;;;9.50;100.00
72116;BME280;59991;52.140;5.428;2023-10-31T00:34:52;99629.00;;;9.50;100.00
72116;BME280;59991;52.140;5.428;2023-10-31T00:35:23;99619.28;;;9.49;100.00
72116;BME280;59991;52.140;5.428;2023-10-31T00:35:55;99630.16;;;9.49;100.00
72116;BME280;59991;52.140;5.428;2023-10-31T00:36:27;99622.00;;;9.49;100.00
72116;BME280;59991;52.140;5.428;2023-10-31T00:36:58;99626.25;;;9.50;100.00
72116;BME280;59991;52.140;5.428;2023-10-31T00:37:30;99619.28;;;9.49;100.00
72116;BME280;59991;52.140;5.428;2023-10-31T00:38:51;99611.09;;;9.49;100.00
72116;BME280;59991;52.140;5.428;2023-10-31T00:39:23;99620.81;;;9.50;100.00
72116;BME280;59991;52.140;5.428;2023-10-31T00:39:54;99621.22;;;9.49;100.00
72116;BME280;59991;52.140;5.428;2023-10-31T00:40:26;99614.22;;;9.48;100.00
72116;BME280;59991;52.140;5.428;2023-10-31T00:40:57;99622.00;;;9.49;100.00
72116;BME280;59991;52.140;5.428;2023-10-31T00:41:30;99612.28;;;9.48;100.00
72116;BME280;59991;52.140;5.428;2023-10-31T00:42:01;99612.66;;;9.50;100.00
72116;BME280;59991;52.140;5.428;2023-10-31T00:42:33;99619.28;;;9.49;100.00
72116;BME280;59991;52.140;5.428;2023-10-31T00:43:04;99616.56;;;9.49;100.00
72116;BME280;59991;52.140;5.428;2023-10-31T00:43:36;99616.94;;;9.48;100.00
72116;BME280;59991;52.140;5.428;2023-10-31T00:44:07;99622.00;;;9.49;100.00
72116;BME280;59991;52.140;5.428;2023-10-31T00:44:39;99616.94;;;9.48;100.00
72116;BME280;59991;52.140;5.428;2023-10-31T00:45:11;99620.44;;;9.48;100.00
72116;BME280;59991;52.140;5.428;2023-10-31T00:45:42;99613.44;;;9.47;100.00
72116;BME280;59991;52.140;5.428;2023-10-31T00:46:14;99615.00;;;9.48;100.00
72116;BME280;59991;52.140;5.428;2023-10-31T00:46:45;99620.44;;;9.48;100.00
72116;BME280;59991;52.140;5.428;2023-10-31T00:47:16;99615.78;;;9.49;100.00
72116;BME280;59991;52.140;5.428;2023-10-31T00:47:49;99618.91;;;9.47;100.00
72116;BME280;59991;52.140;5.428;2023-10-31T00:48:20;99611.09;;;9.49;100.00
72116;BME280;59991;52.140;5.428;2023-10-31T00:48:52;99614.59;;;9.50;100.00
72116;BME280;59991;52.140;5.428;2023-10-31T00:49:24;99619.66;;;9.51;100.00
72116;BME280;59991;52.140;5.428;2023-10-31T00:49:55;99624.31;;;9.51;100.00
72116;BME280;59991;52.140;5.428;2023-10-31T00:50:28;99616.56;;;9.49;100.00
72116;BME280;59991;52.140;5.428;2023-10-31T00:51:00;99619.66;;;9.51;100.00
72116;BME280;59991;52.140;5.428;2023-10-31T00:51:32;99616.94;;;9.51;100.00
72116;BME280;59991;52.140;5.428;2023-10-31T00:52:04;99619.66;;;9.51;100.00
72116;BME280;59991;52.140;5.428;2023-10-31T00:52:35;99621.22;;;9.49;100.00
72116;BME280;59991;52.140;5.428;2023-10-31T00:53:07;99619.66;;;9.48;100.00
72116;BME280;59991;52.140;5.428;2023-10-31T00:53:39;99622.38;;;9.48;100.00
72116;BME280;59991;52.140;5.428;2023-10-31T00:54:10;99630.94;;;9.46;100.00
72116;BME280;59991;52.140;5.428;2023-10-31T00:54:42;99626.28;;;9.47;100.00
72116;BME280;59991;52.140;5.428;2023-10-31T00:55:13;99629.41;;;9.45;100.00
72116;BME280;59991;52.140;5.428;2023-10-31T00:55:45;99624.72;;;9.46;100.00
72116;BME280;59991;52.140;5.428;2023-10-31T00:56:16;99633.66;;;9.46;100.00
72116;BME280;59991;52.140;5.428;2023-10-31T00:56:48;99635.22;;;9.47;100.00
72116;BME280;59991;52.140;5.428;2023-10-31T00:57:19;99641.84;;;9.46;100.00
72116;BME280;59991;52.140;5.428;2023-10-31T00:57:52;99639.09;;;9.46;100.00
72116;BME280;59991;52.140;5.428;2023-10-31T00:58:23;99636.38;;;9.46;100.00
72116;BME280;59991;52.140;5.428;2023-10-31T00:58:55;99635.22;;;9.47;100.00
72116;BME280;59991;52.140;5.428;2023-10-31T00:59:26;99637.94;;;9.47;100.00
72116;BME280;59991;52.140;5.428;2023-10-31T00:59:58;99639.88;;;9.47;100.00
72116;BME280;59991;52.140;5.428;2023-10-31T01:00:29;99639.50;;;9.48;100.00
72116;BME280;59991;52.140;5.428;2023-10-31T01:01:01;99643.00;;;9.49;100.00
72116;BME280;59991;52.140;5.428;2023-10-31T01:01:33;99636.78;;;9.48;100.00
72116;BME280;59991;52.140;5.428;2023-10-31T01:02:04;99638.31;;;9.49;100.00
72116;BME280;59991;52.140;5.428;2023-10-31T01:02:36;99641.03;;;9.49;100.00
72116;BME280;59991;52.140;5.428;2023-10-31T01:03:08;99649.97;;;9.50;100.00
72116;BME280;59991;52.140;5.428;2023-10-31T01:03:39;99640.66;;;9.51;100.00
72116;BME280;59991;52.140;5.428;2023-10-31T01:04:11;99645.31;;;9.50;100.00
72116;BME280;59991;52.140;5.428;2023-10-31T01:04:42;99643.75;;;9.49;100.00
72116;BME280;59991;52.140;5.428;2023-10-31T01:05:14;99646.47;;;9.49;100.00
72116;BME280;59991;52.140;5.428;2023-10-31T01:05:46;99648.81;;;9.51;100.00
72116;BME280;59991;52.140;5.428;2023-10-31T01:06:17;99651.53;;;9.51;100.00
72116;BME280;59991;52.140;5.428;2023-10-31T01:06:49;99644.53;;;9.50;100.00
72116;BME280;59991;52.140;5.428;2023-10-31T01:07:20;99653.47;;;9.50;100.00
72116;BME280;59991;52.140;5.428;2023-10-31T01:07:52;99639.09;;;9.50;100.00
72116;BME280;59991;52.140;5.428;2023-10-31T01:08:23;99648.03;;;9.50;100.00
72116;BME280;59991;52.140;5.428;2023-10-31T01:08:55;99649.22;;;9.49;100.00
72116;BME280;59991;52.140;5.428;2023-10-31T01:09:26;99647.25;;;9.50;100.00
72116;BME280;59991;52.140;5.428;2023-10-31T01:09:57;99647.25;;;9.50;100.00
72116;BME280;59991;52.140;5.428;2023-10-31T01:10:29;99647.25;;;9.50;100.00
72116;BME280;59991;52.140;5.428;2023-10-31T01:11:01;99644.53;;;9.50;100.00
72116;BME280;59991;52.140;5.428;2023-10-31T01:11:32;99649.59;;;9.51;100.00
72116;BME280;59991;52.140;5.428;2023-10-31T01:12:04;99646.88;;;9.51;100.00
72116;BME280;59991;52.140;5.428;2023-10-31T01:12:55;99649.97;;;9.53;100.00
72116;BME280;59991;52.140;5.428;2023-10-31T01:13:26;99653.06;;;9.52;100.00
72116;BME280;59991;52.140;5.428;2023-10-31T01:13:58;99651.13;;;9.52;100.00
72116;BME280;59991;52.140;5.428;2023-10-31T01:14:29;99655.41;;;9.53;100.00
72116;BME280;59991;52.140;5.428;2023-10-31T01:15:01;99652.69;;;9.53;100.00
72116;BME280;59991;52.140;5.428;2023-10-31T01:15:33;99656.19;;;9.54;100.00
72116;BME280;59991;52.140;5.428;2023-10-31T01:16:04;99656.56;;;9.56;100.00
72116;BME280;59991;52.140;5.428;2023-10-31T01:16:36;99655.78;;;9.55;100.00
72116;BME280;59991;52.140;5.428;2023-10-31T01:17:07;99662.78;;;9.56;100.00
72116;BME280;59991;52.140;5.428;2023-10-31T01:17:39;99655.38;;;9.57;100.00
72116;BME280;59991;52.140;5.428;2023-10-31T01:18:10;99662.38;;;9.58;100.00
72116;BME280;59991;52.140;5.428;2023-10-31T01:18:42;99669.00;;;9.57;100.00
72116;BME280;59991;52.140;5.428;2023-10-31T01:19:14;99662.78;;;9.56;100.00
72116;BME280;59991;52.140;5.428;2023-10-31T01:19:45;99655.38;;;9.57;100.00
72116;BME280;59991;52.140;5.428;2023-10-31T01:20:17;99664.72;;;9.56;100.00
72116;BME280;59991;52.140;5.428;2023-10-31T01:20:48;99653.06;;;9.55;100.00
72116;BME280;59991;52.140;5.428;2023-10-31T01:21:20;99654.22;;;9.54;100.00
72116;BME280;59991;52.140;5.428;2023-10-31T01:21:51;99658.50;;;9.55;100.00
72116;BME280;59991;52.140;5.428;2023-10-31T01:22:23;99656.56;;;9.56;100.00
72116;BME280;59991;52.140;5.428;2023-10-31T01:22:54;99660.84;;;9.57;100.00
72116;BME280;59991;52.140;5.428;2023-10-31T01:23:26;99658.88;;;9.57;100.00
72116;BME280;59991;52.140;5.428;2023-10-31T01:23:58;99660.44;;;9.58;100.00
72116;BME280;59991;52.140;5.428;2023-10-31T01:24:30;99660.44;;;9.58;100.00
72116;BME280;59991;52.140;5.428;2023-10-31T01:25:01;99665.88;;;9.58;100.00
72116;BME280;59991;52.140;5.428;2023-10-31T01:25:50;99663.94;;;9.59;100.00
72116;BME280;59991;52.140;5.428;2023-10-31T01:26:22;99658.50;;;9.59;100.00
72116;BME280;59991;52.140;5.428;2023-10-31T01:26:53;99663.53;;;9.60;100.00
72116;BME280;59991;52.140;5.428;2023-10-31T01:27:25;99664.72;;;9.59;100.00
72116;BME280;59991;52.140;5.428;2023-10-31T01:27:56;99667.44;;;9.59;100.00
72116;BME280;59991;52.140;5.428;2023-10-31T01:28:28;99666.66;;;9.59;100.00
72116;BME280;59991;52.140;5.428;2023-10-31T01:28:59;99667.44;;;9.59;100.00
72116;BME280;59991;52.140;5.428;2023-10-31T01:29:31;99672.88;;;9.59;100.00
72116;BME280;59991;52.140;5.428;2023-10-31T01:30:03;99675.59;;;9.59;100.00
72116;BME280;59991;52.140;5.428;2023-10-31T01:30:34;99674.41;;;9.60;100.00
72116;BME280;59991;52.140;5.428;2023-10-31T01:31:06;99674.41;;;9.60;100.00
72116;BME280;59991;52.140;5.428;2023-10-31T01:31:41;99674.03;;;9.62;100.00
72116;BME280;59991;52.140;5.428;2023-10-31T01:32:29;99672.47;;;9.61;100.00
72116;BME280;59991;52.140;5.428;2023-10-31T01:33:01;99668.97;;;9.60;100.00
72116;BME280;59991;52.140;5.428;2023-10-31T01:33:33;99668.97;;;9.60;100.00
72116;BME280;59991;52.140;5.428;2023-10-31T01:34:04;99678.69;;;9.61;100.00
72116;BME280;59991;52.140;5.428;2023-10-31T01:34:36;99674.41;;;9.60;100.00
72116;BME280;59991;52.140;5.428;2023-10-31T01:35:08;99677.91;;;9.61;100.00
72116;BME280;59991;52.140;5.428;2023-10-31T01:35:39;99677.16;;;9.60;100.00
72116;BME280;59991;52.140;5.428;2023-10-31T01:36:11;99677.91;;;9.61;100.00
72116;BME280;59991;52.140;5.428;2023-10-31T01:36:43;99682.59;;;9.60;100.00
72116;BME280;59991;52.140;5.428;2023-10-31T01:37:15;99672.47;;;9.61;100.00
72116;BME280;59991;52.140;5.428;2023-10-31T01:37:47;99675.19;;;9.61;100.00
72116;BME280;59991;52.140;5.428;2023-10-31T01:38:18;99684.91;;;9.62;100.00
72116;BME280;59991;52.140;5.428;2023-10-31T01:38:50;99684.91;;;9.62;100.00
72116;BME280;59991;52.140;5.428;2023-10-31T01:39:21;99682.94;;;9.62;100.00
72116;BME280;59991;52.140;5.428;2023-10-31T01:39:52;99682.94;;;9.62;100.00
72116;BME280;59991;52.140;5.428;2023-10-31T01:40:24;99679.47;;;9.62;100.00
72116;BME280;59991;52.140;5.428;2023-10-31T01:40:55;99687.22;;;9.63;100.00
72116;BME280;59991;52.140;5.428;2023-10-31T01:41:27;99688.38;;;9.62;100.00
72116;BME280;59991;52.140;5.428;2023-10-31T01:41:58;99682.94;;;9.62;100.00
72116;BME280;59991;52.140;5.428;2023-10-31T01:42:30;99689.16;;;9.63;100.00
72116;BME280;59991;52.140;5.428;2023-10-31T01:43:01;99682.53;;;9.64;100.00
72116;BME280;59991;52.140;5.428;2023-10-31T01:43:34;99686.03;;;9.64;100.00
72116;BME280;59991;52.140;5.428;2023-10-31T01:44:07;99685.66;;;9.66;100.00
72116;BME280;59991;52.140;5.428;2023-10-31T01:44:38;99686.03;;;9.64;100.00
72116;BME280;59991;52.140;5.428;2023-10-31T01:45:11;99686.03;;;9.64;100.00
72116;BME280;59991;52.140;5.428;2023-10-31T01:45:42;99686.03;;;9.64;100.00
72116;BME280;59991;52.140;5.428;2023-10-31T01:46:14;99691.88;;;9.63;100.00
72116;BME280;59991;52.140;5.428;2023-10-31T01:46:45;99691.09;;;9.62;100.00
72116;BME280;59991;52.140;5.428;2023-10-31T01:47:17;99680.22;;;9.62;100.00
72116;BME280;59991;52.140;5.428;2023-10-31T01:47:49;99689.16;;;9.63;100.00
72116;BME280;59991;52.140;5.428;2023-10-31T01:48:24;99679.03;;;9.63;100.00
72116;BME280;59991;52.140;5.428;2023-10-31T01:48:56;99688.38;;;9.62;100.00
72116;BME280;59991;52.140;5.428;2023-10-31T01:49:28;99682.94;;;9.62;100.00
72116;BME280;59991;52.140;5.428;2023-10-31T01:50:00;99685.25;;;9.64;100.00
72116;BME280;59991;52.140;5.428;2023-10-31T01:50:31;99681.75;;;9.63;100.00
72116;BME280;59991;52.140;5.428;2023-10-31T01:51:03;99679.81;;;9.64;100.00
72116;BME280;59991;52.140;5.428;2023-10-31T01:51:35;99682.16;;;9.65;100.00
72116;BME280;59991;52.140;5.428;2023-10-31T01:52:07;99677.09;;;9.64;100.00
72116;BME280;59991;52.140;5.428;2023-10-31T01:52:38;99680.19;;;9.66;100.00
72116;BME280;59991;52.140;5.428;2023-10-31T01:53:10;99684.88;;;9.65;100.00
72116;BME280;59991;52.140;5.428;2023-10-31T01:53:42;99684.88;;;9.65;100.00
72116;BME280;59991;52.140;5.428;2023-10-31T01:54:14;99680.56;;;9.68;100.00
72116;BME280;59991;52.140;5.428;2023-10-31T01:54:45;99675.91;;;9.68;100.00
72116;BME280;59991;52.140;5.428;2023-10-31T01:55:17;99677.84;;;9.68;100.00
72116;BME280;59991;52.140;5.428;2023-10-31T01:55:50;99681.34;;;9.68;100.00
72116;BME280;59991;52.140;5.428;2023-10-31T01:56:23;99681.72;;;9.70;100.00
72116;BME280;59991;52.140;5.428;2023-10-31T01:56:56;99685.22;;;9.71;100.00
72116;BME280;59991;52.140;5.428;2023-10-31T01:57:29;99684.06;;;9.72;100.00
72116;BME280;59991;52.140;5.428;2023-10-31T01:58:01;99681.34;;;9.72;100.00
72116;BME280;59991;52.140;5.428;2023-10-31T01:58:37;99684.44;;;9.74;100.00
72116;BME280;59991;52.140;5.428;2023-10-31T01:59:08;99685.59;;;9.73;100.00
72116;BME280;59991;52.140;5.428;2023-10-31T01:59:40;99685.59;;;9.73;100.00
72116;BME280;59991;52.140;5.428;2023-10-31T02:00:13;99681.31;;;9.76;100.00
72116;BME280;59991;52.140;5.428;2023-10-31T02:00:46;99685.22;;;9.75;100.00
72116;BME280;59991;52.140;5.428;2023-10-31T02:01:17;99685.97;;;9.75;100.00
72116;BME280;59991;52.140;5.428;2023-10-31T02:01:49;99682.50;;;9.75;100.00
72116;BME280;59991;52.140;5.428;2023-10-31T02:02:22;99681.72;;;9.74;100.00
72116;BME280;59991;52.140;5.428;2023-10-31T02:02:55;99683.25;;;9.75;100.00
72116;BME280;59991;52.140;5.428;2023-10-31T02:03:27;99683.66;;;9.74;100.00
72116;BME280;59991;52.140;5.428;2023-10-31T02:03:59;99677.44;;;9.73;100.00
72116;BME280;59991;52.140;5.428;2023-10-31T02:04:33;99686.38;;;9.74;100.00
72116;BME280;59991;52.140;5.428;2023-10-31T02:05:05;99686.38;;;9.74;100.00
72116;BME280;59991;52.140;5.428;2023-10-31T02:05:37;99679.75;;;9.75;100.00
72116;BME280;59991;52.140;5.428;2023-10-31T02:06:09;99683.66;;;9.74;100.00
72116;BME280;59991;52.140;5.428;2023-10-31T02:06:40;99685.22;;;9.75;100.00
72116;BME280;59991;52.140;5.428;2023-10-31T02:07:12;99679.75;;;9.75;100.00
72116;BME280;59991;52.140;5.428;2023-10-31T02:08:34;99679.75;;;9.75;100.00
72116;BME280;59991;52.140;5.428;2023-10-31T02:09:06;99683.25;;;9.75;100.00
72116;BME280;59991;52.140;5.428;2023-10-31T02:09:38;99677.03;;;9.75;100.00
72116;BME280;59991;52.140;5.428;2023-10-31T02:10:09;99679.75;;;9.75;100.00
72116;BME280;59991;52.140;5.428;2023-10-31T02:10:41;99675.88;;;9.76;100.00
72116;BME280;59991;52.140;5.428;2023-10-31T02:11:12;99676.66;;;9.76;100.00
72116;BME280;59991;52.140;5.428;2023-10-31T02:11:44;99674.69;;;9.77;100.00
72116;BME280;59991;52.140;5.428;2023-10-31T02:12:32;99676.25;;;9.78;100.00
72116;BME280;59991;52.140;5.428;2023-10-31T02:13:14;99685.97;;;9.79;100.00
72116;BME280;59991;52.140;5.428;2023-10-31T02:13:46;99677.81;;;9.79;100.00
72116;BME280;59991;52.140;5.428;2023-10-31T02:14:18;99677.81;;;9.79;100.00
72116;BME280;59991;52.140;5.428;2023-10-31T02:15:08;99676.63;;;9.80;100.00
72116;BME280;59991;52.140;5.428;2023-10-31T02:15:40;99680.91;;;9.81;100.00
72116;BME280;59991;52.140;5.428;2023-10-31T02:16:11;99680.13;;;9.80;100.00
72116;BME280;59991;52.140;5.428;2023-10-31T02:16:43;99675.84;;;9.79;100.00
72116;BME280;59991;52.140;5.428;2023-10-31T02:17:14;99680.91;;;9.81;100.00
72116;BME280;59991;52.140;5.428;2023-10-31T02:17:46;99680.13;;;9.80;100.00
72116;BME280;59991;52.140;5.428;2023-10-31T02:19:26;99678.19;;;9.81;100.00
72116;BME280;59991;52.140;5.428;2023-10-31T02:19:57;99683.63;;;9.81;100.00
72116;BME280;59991;52.140;5.428;2023-10-31T02:20:29;99683.63;;;9.81;100.00
72116;BME280;59991;52.140;5.428;2023-10-31T02:21:00;99682.84;;;9.80;100.00
72116;BME280;59991;52.140;5.428;2023-10-31T02:21:32;99683.63;;;9.81;100.00
72116;BME280;59991;52.140;5.428;2023-10-31T02:22:04;99683.19;;;9.82;100.00
72116;BME280;59991;52.140;5.428;2023-10-31T02:22:35;99683.19;;;9.82;100.00
72116;BME280;59991;52.140;5.428;2023-10-31T02:23:07;99679.69;;;9.82;100.00
72116;BME280;59991;52.140;5.428;2023-10-31T02:23:38;99686.69;;;9.83;100.00
72116;BME280;59991;52.140;5.428;2023-10-31T02:24:10;99681.25;;;9.83;100.00
72116;BME280;59991;52.140;5.428;2023-10-31T02:24:41;99677.34;;;9.84;100.00
72116;BME280;59991;52.140;5.428;2023-10-31T02:25:17;99680.84;;;9.84;100.00
72116;BME280;59991;52.140;5.428;2023-10-31T02:25:49;99687.06;;;9.85;100.00
72116;BME280;59991;52.140;5.428;2023-10-31T02:26:21;99690.97;;;9.84;100.00
72116;BME280;59991;52.140;5.428;2023-10-31T02:26:52;99683.56;;;9.84;100.00
72116;BME280;59991;52.140;5.428;2023-10-31T02:27:24;99676.19;;;9.85;100.00
72116;BME280;59991;52.140;5.428;2023-10-31T02:27:55;99674.22;;;9.85;100.00
72116;BME280;59991;52.140;5.428;2023-10-31T02:28:27;99677.72;;;9.86;100.00
72116;BME280;59991;52.140;5.428;2023-10-31T02:29:00;99682.41;;;9.85;100.00
72116;BME280;59991;52.140;5.428;2023-10-31T02:30:23;99682.81;;;9.84;100.00
72116;BME280;59991;52.140;5.428;2023-10-31T02:30:54;99679.31;;;9.83;100.00
72116;BME280;59991;52.140;5.428;2023-10-31T02:31:26;99683.97;;;9.83;100.00
72116;BME280;59991;52.140;5.428;2023-10-31T02:31:58;99688.63;;;9.82;100.00
72116;BME280;59991;52.140;5.428;2023-10-31T02:32:29;99681.25;;;9.83;100.00
72116;BME280;59991;52.140;5.428;2023-10-31T02:33:02;99680.06;;;9.84;100.00
72116;BME280;59991;52.140;5.428;2023-10-31T02:33:33;99684.75;;;9.83;100.00
72116;BME280;59991;52.140;5.428;2023-10-31T02:34:05;99685.53;;;9.84;100.00
72116;BME280;59991;52.140;5.428;2023-10-31T02:34:37;99677.34;;;9.84;100.00
72116;BME280;59991;52.140;5.428;2023-10-31T02:35:25;99680.06;;;9.84;100.00
72116;BME280;59991;52.140;5.428;2023-10-31T02:35:57;99682.81;;;9.84;100.00
72116;BME280;59991;52.140;5.428;2023-10-31T02:36:28;99684.75;;;9.83;100.00
72116;BME280;59991;52.140;5.428;2023-10-31T02:37:00;99685.53;;;9.84;100.00
72116;BME280;59991;52.140;5.428;2023-10-31T02:37:31;99675.81;;;9.83;100.00
72116;BME280;59991;52.140;5.428;2023-10-31T02:38:03;99677.34;;;9.84;100.00
72116;BME280;59991;52.140;5.428;2023-10-31T02:38:34;99678.53;;;9.83;100.00
72116;BME280;59991;52.140;5.428;2023-10-31T02:39:06;99678.53;;;9.83;100.00
72116;BME280;59991;52.140;5.428;2023-10-31T02:39:37;99673.84;;;9.83;100.00
72116;BME280;59991;52.140;5.428;2023-10-31T02:40:09;99687.06;;;9.85;100.00
72116;BME280;59991;52.140;5.428;2023-10-31T02:40:41;99684.75;;;9.83;100.00
72116;BME280;59991;52.140;5.428;2023-10-31T02:41:13;99681.69;;;9.81;100.00
72116;BME280;59991;52.140;5.428;2023-10-31T02:41:44;99681.28;;;9.79;100.00
72116;BME280;59991;52.140;5.428;2023-10-31T02:42:16;99689.84;;;9.81;100.00
72116;BME280;59991;52.140;5.428;2023-10-31T02:42:47;99684.03;;;9.79;100.00
72116;BME280;59991;52.140;5.428;2023-10-31T02:43:19;99680.91;;;9.77;100.00
72116;BME280;59991;52.140;5.428;2023-10-31T02:43:50;99686.38;;;9.77;100.00
72116;BME280;59991;52.140;5.428;2023-10-31T02:44:22;99686.38;;;9.77;100.00
72116;BME280;59991;52.140;5.428;2023-10-31T02:44:54;99685.59;;;9.77;100.00
72116;BME280;59991;52.140;5.428;2023-10-31T02:45:25;99690.63;;;9.78;100.00
72116;BME280;59991;52.140;5.428;2023-10-31T02:45:57;99692.59;;;9.78;100.00
72116;BME280;59991;52.140;5.428;2023-10-31T02:46:47;99686.75;;;9.79;100.00
72116;BME280;59991;52.140;5.428;2023-10-31T02:47:18;99694.13;;;9.79;100.00
72116;BME280;59991;52.140;5.428;2023-10-31T02:47:50;99696.09;;;9.78;100.00
72116;BME280;59991;52.140;5.428;2023-10-31T02:48:22;99698.03;;;9.78;100.00
72116;BME280;59991;52.140;5.428;2023-10-31T02:48:55;99698.03;;;9.78;100.00
72116;BME280;59991;52.140;5.428;2023-10-31T02:49:26;99693.34;;;9.78;100.00
72116;BME280;59991;52.140;5.428;2023-10-31T02:49:57;99694.53;;;9.77;100.00
72116;BME280;59991;52.140;5.428;2023-10-31T02:50:29;99699.19;;;9.77;100.00
72116;BME280;59991;52.140;5.428;2023-10-31T02:51:00;99699.97;;;9.77;100.00
72116;BME280;59991;52.140;5.428;2023-10-31T02:51:32;99703.47;;;9.78;100.00
72116;BME280;59991;52.140;5.428;2023-10-31T02:52:04;99699.97;;;9.77;100.00
72116;BME280;59991;52.140;5.428;2023-10-31T02:52:35;99698.81;;;9.78;100.00
72116;BME280;59991;52.140;5.428;2023-10-31T02:53:07;99700.75;;;9.78;100.00
72116;BME280;59991;52.140;5.428;2023-10-31T02:53:39;99698.81;;;9.78;100.00
72116;BME280;59991;52.140;5.428;2023-10-31T02:54:10;99699.56;;;9.79;100.00
72116;BME280;59991;52.140;5.428;2023-10-31T02:54:42;99692.59;;;9.78;100.00